Wetterdaten: Woche 17.09.12 - 23.09.12 (KW38)
Datum Zeit Temp. Innen Temp. Aussen UV X Diff Temp. Feuchte Inne Feuchte Auss Sonnenschein Luftdruck Regen ab 0,1 Wind Sonnenschein T Regendauer Windben
17.09.2012 00:00 21,3 C 14,0 C 0,0 UV-I 0,0 C 59 % 91 % 0 % 1011,2 hPa 0,0 l/m 0,0 km/h (0 Bft) 0,00 h 0,00 h 0,0 km/h (0 Bft)
17.09.2012 01:00 21,2 C 13,8 C 0,0 UV-I 0,0 C 59 % 91 % 0 % 1011,2 hPa 0,0 l/m 0,0 km/h (0 Bft) 0,00 h 0,00 h 0,0 km/h (0 Bft)
17.09.2012 02:00 21,1 C 13,8 C 0,0 UV-I 0,0 C 58 % 92 % 0 % 1011,3 hPa 0,0 l/m 0,1 km/h (0 Bft) 0,00 h 0,00 h 0,2 km/h (0 Bft)
17.09.2012 03:00 20,9 C 13,3 C 0,0 UV-I 0,0 C 58 % 92 % 0 % 1011,4 hPa 0,0 l/m 0,0 km/h (0 Bft) 0,00 h 0,00 h 0,0 km/h (0 Bft)
17.09.2012 04:00 20,8 C 12,9 C 0,0 UV-I 0,0 C 58 % 93 % 0 % 1011,9 hPa 0,0 l/m 0,2 km/h (0 Bft) 0,00 h 0,00 h 0,5 km/h (0 Bft)
17.09.2012 05:00 20,6 C 13,0 C 0,0 UV-I 0,0 C 59 % 94 % 0 % 1011,9 hPa 0,0 l/m 0,8 km/h (0 Bft) 0,00 h 0,00 h 2,1 km/h (1 Bft)
17.09.2012 06:00 20,5 C 13,1 C 0,0 UV-I 0,0 C 58 % 93 % 0 % 1012,1 hPa 0,0 l/m 0,5 km/h (0 Bft) 0,00 h 0,00 h 0,8 km/h (0 Bft)
17.09.2012 07:00 20,4 C 13,2 C 0,0 UV-I 0,0 C 59 % 93 % 0 % 1012,5 hPa 0,0 l/m 1,3 km/h (1 Bft) 0,00 h 0,00 h 2,1 km/h (1 Bft)
17.09.2012 08:00 20,4 C 13,5 C 0,0 UV-I 0,3 C 59 % 94 % 8 % 1012,8 hPa 0,0 l/m 0,8 km/h (0 Bft) 0,00 h 0,00 h 1,5 km/h (1 Bft)
17.09.2012 09:00 20,5 C 14,3 C 0,0 UV-I 0,8 C 59 % 93 % 23 % 1013,2 hPa 0,0 l/m 2,0 km/h (1 Bft) 0,00 h 0,00 h 3,1 km/h (1 Bft)
17.09.2012 10:00 20,7 C 15,1 C 0,2 UV-I 1,4 C 60 % 91 % 40 % 1013,7 hPa 0,0 l/m 1,5 km/h (1 Bft) 0,00 h 0,00 h 2,2 km/h (1 Bft)
17.09.2012 11:00 20,9 C 16,0 C 0,5 UV-I 2,0 C 60 % 89 % 57 % 1014,1 hPa 0,0 l/m 1,8 km/h (1 Bft) 0,00 h 0,00 h 3,8 km/h (1 Bft)
17.09.2012 12:00 21,2 C 16,6 C 0,7 UV-I 2,3 C 60 % 87 % 66 % 1014,3 hPa 0,0 l/m 2,0 km/h (1 Bft) 0,00 h 0,00 h 3,2 km/h (1 Bft)
17.09.2012 13:00 21,2 C 16,9 C 0,4 UV-I 1,6 C 60 % 85 % 47 % 1014,4 hPa 0,0 l/m 2,3 km/h (1 Bft) 0,00 h 0,00 h 4,2 km/h (1 Bft)
17.09.2012 14:00 21,3 C 17,0 C 0,4 UV-I 1,4 C 60 % 85 % 39 % 1014,3 hPa 0,0 l/m 1,7 km/h (1 Bft) 0,00 h 0,00 h 3,1 km/h (1 Bft)
17.09.2012 15:00 21,5 C 17,4 C 0,6 UV-I 2,0 C 60 % 84 % 56 % 1014,1 hPa 0,0 l/m 1,8 km/h (1 Bft) 0,00 h 0,00 h 3,4 km/h (1 Bft)
17.09.2012 16:00 21,6 C 17,6 C 0,5 UV-I 1,8 C 60 % 82 % 50 % 1013,8 hPa 0,0 l/m 2,7 km/h (1 Bft) 0,00 h 0,00 h 4,3 km/h (1 Bft)
17.09.2012 17:00 21,8 C 17,8 C 0,5 UV-I 1,8 C 59 % 82 % 53 % 1013,2 hPa 0,0 l/m 2,2 km/h (1 Bft) 0,13 h 0,00 h 4,2 km/h (1 Bft)
17.09.2012 18:00 21,9 C 18,0 C 0,2 UV-I 1,1 C 59 % 81 % 32 % 1013,2 hPa 0,0 l/m 2,4 km/h (1 Bft) 0,00 h 0,00 h 3,4 km/h (1 Bft)
17.09.2012 19:00 21,7 C 16,7 C 0,0 UV-I 0,0 C 59 % 83 % 0 % 1013,2 hPa 0,0 l/m 0,2 km/h (0 Bft) 0,00 h 0,00 h 0,0 km/h (0 Bft)
17.09.2012 20:00 21,4 C 15,4 C 0,0 UV-I 0,0 C 60 % 86 % 0 % 1013,2 hPa 0,0 l/m 0,0 km/h (0 Bft) 0,00 h 0,00 h 0,0 km/h (0 Bft)
17.09.2012 21:00 21,1 C 14,6 C 0,0 UV-I 0,0 C 60 % 89 % 0 % 1013,1 hPa 0,0 l/m 0,1 km/h (0 Bft) 0,00 h 0,00 h 0,1 km/h (0 Bft)
17.09.2012 22:00 20,8 C 13,9 C 0,0 UV-I 0,0 C 61 % 91 % 0 % 1012,8 hPa 0,0 l/m 0,0 km/h (0 Bft) 0,00 h 0,00 h 0,0 km/h (0 Bft)
17.09.2012 23:00 20,6 C 13,2 C 0,0 UV-I 0,0 C 61 % 92 % 0 % 1012,7 hPa 0,0 l/m 0,0 km/h (0 Bft) 0,00 h 0,00 h 0,1 km/h (0 Bft)
18.09.2012 00:00 20,5 C 13,3 C 0,0 UV-I 0,0 C 61 % 94 % 0 % 1012,4 hPa 0,0 l/m 0,6 km/h (0 Bft) 0,00 h 0,00 h 1,7 km/h (1 Bft)
18.09.2012 01:00 20,5 C 13,7 C 0,0 UV-I 0,0 C 61 % 94 % 0 % 1012,0 hPa 0,0 l/m 0,5 km/h (0 Bft) 0,00 h 0,00 h 0,8 km/h (0 Bft)
18.09.2012 02:00 20,5 C 14,1 C 0,0 UV-I 0,0 C 61 % 94 % 0 % 1011,7 hPa 0,0 l/m 0,7 km/h (0 Bft) 0,00 h 0,00 h 1,8 km/h (1 Bft)
18.09.2012 03:00 20,5 C 14,4 C 0,0 UV-I 0,0 C 62 % 93 % 0 % 1011,2 hPa 0,0 l/m 0,5 km/h (0 Bft) 0,00 h 0,00 h 1,1 km/h (1 Bft)
18.09.2012 04:00 20,4 C 14,1 C 0,0 UV-I 0,0 C 62 % 93 % 0 % 1010,9 hPa 0,0 l/m 0,5 km/h (0 Bft) 0,00 h 0,03 h 1,2 km/h (1 Bft)
18.09.2012 05:00 20,3 C 13,4 C 0,0 UV-I 0,0 C 62 % 94 % 0 % 1010,9 hPa 0,0 l/m 0,1 km/h (0 Bft) 0,00 h 0,00 h 0,3 km/h (0 Bft)
18.09.2012 06:00 20,1 C 13,0 C 0,0 UV-I 0,0 C 63 % 95 % 0 % 1010,8 hPa 0,0 l/m 0,2 km/h (0 Bft) 0,00 h 0,00 h 0,3 km/h (0 Bft)
18.09.2012 07:00 20,0 C 12,7 C 0,0 UV-I 0,0 C 63 % 95 % 0 % 1010,7 hPa 0,0 l/m 0,4 km/h (0 Bft) 0,00 h 0,00 h 1,0 km/h (0 Bft)
18.09.2012 08:00 20,1 C 13,4 C 0,0 UV-I 0,8 C 63 % 96 % 22 % 1010,2 hPa 0,0 l/m 1,5 km/h (1 Bft) 0,17 h 0,00 h 3,0 km/h (1 Bft)
18.09.2012 09:00 20,3 C 15,0 C 0,4 UV-I 4,8 C 61 % 93 % 87 % 1010,0 hPa 0,0 l/m 2,7 km/h (1 Bft) 0,77 h 0,00 h 5,5 km/h (1 Bft)
18.09.2012 10:00 20,5 C 16,4 C 0,4 UV-I 2,5 C 59 % 84 % 68 % 1010,3 hPa 0,0 l/m 3,2 km/h (1 Bft) 0,30 h 0,00 h 4,4 km/h (1 Bft)
18.09.2012 11:00 20,7 C 17,0 C 0,4 UV-I 1,7 C 57 % 78 % 49 % 1010,5 hPa 0,0 l/m 6,7 km/h (2 Bft) 0,00 h 0,00 h 10,8 km/h (2 Bft)
18.09.2012 12:00 20,8 C 16,2 C 0,4 UV-I 1,2 C 59 % 84 % 35 % 1010,5 hPa 0,0 l/m 4,6 km/h (1 Bft) 0,00 h 0,00 h 6,5 km/h (2 Bft)
18.09.2012 13:00 20,9 C 16,9 C 1,0 UV-I 2,2 C 58 % 79 % 63 % 1010,6 hPa 0,0 l/m 5,4 km/h (1 Bft) 0,17 h 0,00 h 7,3 km/h (2 Bft)
18.09.2012 14:00 21,2 C 17,4 C 0,8 UV-I 2,1 C 56 % 73 % 60 % 1010,7 hPa 0,0 l/m 5,4 km/h (1 Bft) 0,37 h 0,00 h 8,5 km/h (2 Bft)
18.09.2012 15:00 21,9 C 18,1 C 1,8 UV-I 3,2 C 54 % 69 % 76 % 1010,5 hPa 0,0 l/m 4,8 km/h (1 Bft) 0,47 h 0,00 h 7,3 km/h (2 Bft)
18.09.2012 16:00 22,0 C 18,1 C 0,7 UV-I 1,8 C 52 % 68 % 51 % 1010,4 hPa 0,0 l/m 3,1 km/h (1 Bft) 0,00 h 0,00 h 4,5 km/h (1 Bft)
18.09.2012 17:00 21,8 C 17,2 C 0,1 UV-I 0,5 C 51 % 67 % 13 % 1011,0 hPa 0,0 l/m 4,9 km/h (1 Bft) 0,00 h 0,00 h 7,6 km/h (2 Bft)
18.09.2012 18:00 21,6 C 16,7 C 0,1 UV-I 0,7 C 51 % 70 % 20 % 1011,1 hPa 0,0 l/m 3,0 km/h (1 Bft) 0,00 h 0,00 h 3,6 km/h (1 Bft)
18.09.2012 19:00 21,5 C 16,0 C 0,0 UV-I 0,0 C 51 % 71 % 0 % 1011,6 hPa 0,0 l/m 1,8 km/h (1 Bft) 0,00 h 0,00 h 3,1 km/h (1 Bft)
18.09.2012 20:00 21,1 C 14,1 C 0,0 UV-I 0,0 C 50 % 72 % 0 % 1012,2 hPa 0,0 l/m 0,7 km/h (0 Bft) 0,00 h 0,00 h 1,1 km/h (1 Bft)
18.09.2012 21:00 20,7 C 12,7 C 0,0 UV-I 0,0 C 50 % 76 % 0 % 1013,0 hPa 0,0 l/m 0,5 km/h (0 Bft) 0,00 h 0,00 h 1,1 km/h (1 Bft)
18.09.2012 22:00 20,3 C 11,5 C 0,0 UV-I 0,0 C 50 % 79 % 0 % 1013,4 hPa 0,0 l/m 1,2 km/h (1 Bft) 0,00 h 0,00 h 2,5 km/h (1 Bft)
18.09.2012 23:00 19,9 C 10,1 C 0,0 UV-I 0,0 C 50 % 81 % 0 % 1014,0 hPa 0,0 l/m 0,0 km/h (0 Bft) 0,00 h 0,00 h 0,0 km/h (0 Bft)
19.09.2012 00:00 19,6 C 9,2 C 0,0 UV-I 0,0 C 51 % 86 % 0 % 1014,2 hPa 0,0 l/m 0,0 km/h (0 Bft) 0,00 h 0,00 h 0,0 km/h (0 Bft)
19.09.2012 01:00 19,3 C 8,6 C 0,0 UV-I 0,0 C 51 % 88 % 0 % 1014,5 hPa 0,0 l/m 0,0 km/h (0 Bft) 0,00 h 0,00 h 0,0 km/h (0 Bft)
19.09.2012 02:00 19,1 C 8,2 C 0,0 UV-I 0,0 C 51 % 90 % 0 % 1014,9 hPa 0,0 l/m 0,3 km/h (0 Bft) 0,00 h 0,07 h 1,1 km/h (1 Bft)
19.09.2012 03:00 19,1 C 9,1 C 0,0 UV-I 0,0 C 53 % 92 % 0 % 1015,2 hPa 0,0 l/m 0,2 km/h (0 Bft) 0,00 h 0,50 h 0,0 km/h (0 Bft)
19.09.2012 04:00 19,0 C 9,1 C 0,0 UV-I 0,0 C 53 % 92 % 0 % 1015,6 hPa 0,0 l/m 0,0 km/h (0 Bft) 0,00 h 0,20 h 0,4 km/h (0 Bft)
19.09.2012 05:00 18,7 C 8,6 C 0,0 UV-I 0,0 C 53 % 93 % 0 % 1015,6 hPa 0,0 l/m 0,5 km/h (0 Bft) 0,00 h 0,10 h 0,8 km/h (0 Bft)
19.09.2012 06:00 18,4 C 8,2 C 0,0 UV-I 0,0 C 53 % 94 % 0 % 1015,8 hPa 0,0 l/m 0,3 km/h (0 Bft) 0,00 h 0,03 h 0,3 km/h (0 Bft)
19.09.2012 07:00 18,1 C 8,3 C 0,0 UV-I 0,0 C 53 % 95 % 0 % 1016,3 hPa 0,0 l/m 1,3 km/h (1 Bft) 0,00 h 0,03 h 2,5 km/h (1 Bft)
19.09.2012 08:00 18,0 C 8,8 C 0,0 UV-I 1,4 C 54 % 95 % 31 % 1016,7 hPa 0,0 l/m 1,5 km/h (1 Bft) 0,30 h 0,00 h 3,8 km/h (1 Bft)
19.09.2012 09:00 18,1 C 10,4 C 0,3 UV-I 7,5 C 54 % 93 % 100 % 1017,3 hPa 0,0 l/m 3,7 km/h (1 Bft) 1,00 h 0,00 h 6,8 km/h (2 Bft)
19.09.2012 10:00 18,5 C 12,5 C 1,4 UV-I 7,9 C 54 % 86 % 100 % 1017,8 hPa 0,0 l/m 5,9 km/h (2 Bft) 1,00 h 0,00 h 9,3 km/h (2 Bft)
19.09.2012 11:00 19,0 C 13,8 C 1,9 UV-I 4,8 C 53 % 78 % 93 % 1018,2 hPa 0,0 l/m 6,3 km/h (2 Bft) 0,83 h 0,00 h 9,0 km/h (2 Bft)
19.09.2012 12:00 19,5 C 14,1 C 1,9 UV-I 3,5 C 51 % 75 % 75 % 1018,6 hPa 0,7 l/m 5,5 km/h (1 Bft) 0,67 h 0,10 h 9,7 km/h (2 Bft)
19.09.2012 13:00 20,3 C 15,7 C 2,3 UV-I 6,6 C 49 % 68 % 98 % 1018,7 hPa 0,0 l/m 7,8 km/h (2 Bft) 0,93 h 0,00 h 11,9 km/h (2 Bft)
19.09.2012 14:00 21,3 C 14,3 C 2,6 UV-I 4,1 C 48 % 68 % 87 % 1019,6 hPa 0,0 l/m 9,4 km/h (2 Bft) 0,70 h 0,03 h 14,0 km/h (3 Bft)
19.09.2012 15:00 22,4 C 15,5 C 2,7 UV-I 5,1 C 45 % 64 % 100 % 1018,9 hPa 0,0 l/m 7,0 km/h (2 Bft) 1,00 h 0,03 h 7,8 km/h (2 Bft)
19.09.2012 16:00 22,9 C 16,3 C 2,1 UV-I 3,1 C 41 % 56 % 78 % 1018,4 hPa 0,0 l/m 9,1 km/h (2 Bft) 0,60 h 0,00 h 15,1 km/h (3 Bft)
19.09.2012 17:00 22,6 C 15,7 C 0,5 UV-I 1,8 C 39 % 59 % 51 % 1018,5 hPa 0,0 l/m 5,9 km/h (2 Bft) 0,23 h 0,00 h 8,0 km/h (2 Bft)
19.09.2012 18:00 21,6 C 14,4 C 0,1 UV-I 0,2 C 41 % 64 % 7 % 1019,4 hPa 0,0 l/m 4,6 km/h (1 Bft) 0,07 h 0,00 h 6,4 km/h (2 Bft)
19.09.2012 19:00 20,9 C 13,8 C 0,0 UV-I 0,1 C 42 % 67 % 3 % 1019,9 hPa 0,0 l/m 3,3 km/h (1 Bft) 0,07 h 0,00 h 4,4 km/h (1 Bft)
19.09.2012 20:00 20,3 C 12,3 C 0,0 UV-I 0,0 C 44 % 71 % 0 % 1020,7 hPa 0,0 l/m 1,6 km/h (1 Bft) 0,00 h 0,00 h 2,9 km/h (1 Bft)
19.09.2012 21:00 19,8 C 10,5 C 0,0 UV-I 0,0 C 46 % 76 % 0 % 1021,4 hPa 0,0 l/m 0,0 km/h (0 Bft) 0,00 h 0,00 h 0,0 km/h (0 Bft)
19.09.2012 22:00 19,2 C 9,2 C 0,0 UV-I 0,0 C 48 % 82 % 0 % 1021,8 hPa 0,0 l/m 0,0 km/h (0 Bft) 0,00 h 0,00 h 0,0 km/h (0 Bft)
19.09.2012 23:00 18,9 C 8,2 C 0,0 UV-I 0,0 C 48 % 86 % 0 % 1022,0 hPa 0,0 l/m 0,0 km/h (0 Bft) 0,00 h 0,00 h 0,0 km/h (0 Bft)
20.09.2012 00:00 18,5 C 8,0 C 0,0 UV-I 0,0 C 48 % 88 % 0 % 1022,2 hPa 0,0 l/m 0,2 km/h (0 Bft) 0,00 h 0,00 h 0,6 km/h (0 Bft)
20.09.2012 01:00 18,3 C 7,6 C 0,0 UV-I 0,0 C 49 % 89 % 0 % 1022,3 hPa 0,0 l/m 0,1 km/h (0 Bft) 0,00 h 0,00 h 0,0 km/h (0 Bft)
20.09.2012 02:00 18,0 C 7,6 C 0,0 UV-I 0,0 C 49 % 90 % 0 % 1022,3 hPa 0,0 l/m 0,1 km/h (0 Bft) 0,00 h 0,00 h 0,8 km/h (0 Bft)
20.09.2012 03:00 17,8 C 7,5 C 0,0 UV-I 0,0 C 49 % 91 % 0 % 1022,3 hPa 0,0 l/m 0,4 km/h (0 Bft) 0,00 h 0,00 h 1,2 km/h (1 Bft)
20.09.2012 04:00 17,6 C 7,5 C 0,0 UV-I 0,0 C 50 % 92 % 0 % 1022,1 hPa 0,0 l/m 0,3 km/h (0 Bft) 0,00 h 0,03 h 0,7 km/h (0 Bft)
20.09.2012 05:00 17,6 C 7,9 C 0,0 UV-I 0,0 C 51 % 93 % 0 % 1021,7 hPa 0,0 l/m 0,3 km/h (0 Bft) 0,00 h 0,00 h 0,6 km/h (0 Bft)
20.09.2012 06:00 17,6 C 7,9 C 0,0 UV-I 0,0 C 52 % 93 % 0 % 1021,6 hPa 0,0 l/m 0,2 km/h (0 Bft) 0,00 h 0,00 h 0,9 km/h (0 Bft)
20.09.2012 07:00 17,5 C 7,9 C 0,0 UV-I 0,0 C 52 % 93 % 0 % 1021,7 hPa 0,0 l/m 0,4 km/h (0 Bft) 0,00 h 0,00 h 1,2 km/h (1 Bft)
20.09.2012 08:00 17,6 C 7,8 C 0,0 UV-I 0,9 C 52 % 93 % 23 % 1022,1 hPa 0,0 l/m 0,2 km/h (0 Bft) 0,20 h 0,00 h 0,5 km/h (0 Bft)
20.09.2012 09:00 17,7 C 9,9 C 0,2 UV-I 5,1 C 52 % 92 % 100 % 1022,3 hPa 0,0 l/m 2,2 km/h (1 Bft) 0,85 h 0,00 h 4,5 km/h (1 Bft)
20.09.2012 10:00 18,1 C 12,7 C 1,0 UV-I 5,5 C 52 % 83 % 100 % 1022,4 hPa 0,0 l/m 3,4 km/h (1 Bft) 0,72 h 0,00 h 6,6 km/h (2 Bft)
20.09.2012 11:00 18,6 C 14,0 C 1,9 UV-I 4,6 C 51 % 75 % 100 % 1022,6 hPa 0,0 l/m 4,9 km/h (1 Bft) 1,00 h 0,00 h 8,8 km/h (2 Bft)
20.09.2012 12:00 19,0 C 15,1 C 2,0 UV-I 4,7 C 49 % 66 % 100 % 1022,6 hPa 0,0 l/m 5,9 km/h (2 Bft) 1,00 h 0,00 h 8,6 km/h (2 Bft)
20.09.2012 13:00 19,7 C 16,1 C 3,0 UV-I 5,7 C 45 % 59 % 100 % 1022,5 hPa 0,0 l/m 5,9 km/h (2 Bft) 1,00 h 0,00 h 7,6 km/h (2 Bft)
20.09.2012 14:00 20,3 C 16,4 C 1,5 UV-I 3,6 C 43 % 57 % 88 % 1022,4 hPa 0,0 l/m 4,3 km/h (1 Bft) 0,70 h 0,00 h 5,9 km/h (2 Bft)
20.09.2012 15:00 20,3 C 15,8 C 1,3 UV-I 2,3 C 42 % 55 % 64 % 1021,7 hPa 0,0 l/m 4,1 km/h (1 Bft) 0,20 h 0,00 h 6,1 km/h (2 Bft)
20.09.2012 16:00 20,8 C 16,0 C 1,0 UV-I 2,3 C 41 % 55 % 65 % 1021,1 hPa 0,0 l/m 3,5 km/h (1 Bft) 0,27 h 0,00 h 4,5 km/h (1 Bft)
20.09.2012 17:00 20,8 C 15,9 C 0,4 UV-I 1,5 C 41 % 57 % 43 % 1020,8 hPa 0,0 l/m 1,7 km/h (1 Bft) 0,03 h 0,00 h 2,5 km/h (1 Bft)
20.09.2012 18:00 20,5 C 16,0 C 0,1 UV-I 0,8 C 41 % 57 % 23 % 1020,5 hPa 0,0 l/m 1,3 km/h (1 Bft) 0,17 h 0,00 h 1,8 km/h (1 Bft)
20.09.2012 19:00 20,1 C 14,0 C 0,0 UV-I 0,0 C 43 % 63 % 0 % 1020,9 hPa 0,0 l/m 0,0 km/h (0 Bft) 0,00 h 0,00 h 0,0 km/h (0 Bft)
20.09.2012 20:00 19,4 C 11,4 C 0,0 UV-I 0,0 C 46 % 73 % 0 % 1020,8 hPa 0,0 l/m 0,0 km/h (0 Bft) 0,00 h 0,00 h 0,0 km/h (0 Bft)
20.09.2012 21:00 18,9 C 9,7 C 0,0 UV-I 0,0 C 48 % 79 % 0 % 1020,7 hPa 0,0 l/m 0,0 km/h (0 Bft) 0,00 h 0,00 h 0,0 km/h (0 Bft)
20.09.2012 22:00 18,5 C 8,8 C 0,0 UV-I 0,0 C 49 % 83 % 0 % 1020,8 hPa 0,0 l/m 0,0 km/h (0 Bft) 0,00 h 0,00 h 0,0 km/h (0 Bft)
20.09.2012 23:00 18,2 C 8,3 C 0,0 UV-I 0,0 C 49 % 85 % 0 % 1020,6 hPa 0,0 l/m 0,1 km/h (0 Bft) 0,00 h 0,00 h 0,3 km/h (0 Bft)
21.09.2012 00:00 18,0 C 8,3 C 0,0 UV-I 0,0 C 49 % 86 % 0 % 1020,5 hPa 0,0 l/m 0,9 km/h (0 Bft) 0,00 h 0,00 h 1,6 km/h (1 Bft)
21.09.2012 01:00 17,9 C 7,9 C 0,0 UV-I 0,0 C 49 % 87 % 0 % 1020,2 hPa 0,0 l/m 0,0 km/h (0 Bft) 0,00 h 0,00 h 0,0 km/h (0 Bft)
21.09.2012 02:00 17,8 C 7,6 C 0,0 UV-I 0,0 C 49 % 87 % 0 % 1019,8 hPa 0,0 l/m 0,8 km/h (0 Bft) 0,00 h 0,00 h 1,7 km/h (1 Bft)
21.09.2012 03:00 17,6 C 7,5 C 0,0 UV-I 0,0 C 48 % 87 % 0 % 1019,3 hPa 0,0 l/m 2,0 km/h (1 Bft) 0,00 h 0,00 h 3,1 km/h (1 Bft)
21.09.2012 04:00 17,5 C 6,9 C 0,0 UV-I 0,0 C 48 % 87 % 0 % 1018,7 hPa 0,0 l/m 0,5 km/h (0 Bft) 0,00 h 0,00 h 0,9 km/h (0 Bft)
21.09.2012 05:00 17,3 C 6,7 C 0,0 UV-I 0,0 C 48 % 89 % 0 % 1018,4 hPa 0,0 l/m 2,9 km/h (1 Bft) 0,00 h 0,00 h 3,9 km/h (1 Bft)
21.09.2012 06:00 17,2 C 6,6 C 0,0 UV-I 0,0 C 49 % 90 % 0 % 1018,0 hPa 0,0 l/m 1,6 km/h (1 Bft) 0,00 h 0,00 h 1,9 km/h (1 Bft)
21.09.2012 07:00 17,2 C 6,7 C 0,0 UV-I 0,0 C 49 % 91 % 0 % 1017,8 hPa 0,0 l/m 4,8 km/h (1 Bft) 0,00 h 0,00 h 6,9 km/h (2 Bft)
21.09.2012 08:00 17,0 C 7,2 C 0,0 UV-I 0,2 C 50 % 91 % 6 % 1017,5 hPa 0,0 l/m 4,9 km/h (1 Bft) 0,00 h 0,00 h 6,2 km/h (2 Bft)
21.09.2012 09:00 17,1 C 8,6 C 0,1 UV-I 2,0 C 51 % 91 % 56 % 1017,0 hPa 0,0 l/m 3,2 km/h (1 Bft) 0,00 h 0,03 h 4,3 km/h (1 Bft)
21.09.2012 10:00 17,5 C 10,6 C 0,4 UV-I 2,4 C 51 % 88 % 70 % 1016,7 hPa 0,0 l/m 3,6 km/h (1 Bft) 0,00 h 0,00 h 6,2 km/h (2 Bft)
21.09.2012 11:00 18,0 C 12,2 C 0,7 UV-I 2,5 C 51 % 82 % 71 % 1016,3 hPa 0,0 l/m 4,1 km/h (1 Bft) 0,17 h 0,00 h 5,4 km/h (1 Bft)
21.09.2012 12:00 18,6 C 14,0 C 1,4 UV-I 3,6 C 50 % 76 % 97 % 1015,7 hPa 0,0 l/m 3,1 km/h (1 Bft) 1,00 h 0,00 h 3,9 km/h (1 Bft)
21.09.2012 13:00 19,4 C 15,9 C 1,7 UV-I 4,4 C 49 % 69 % 100 % 1015,1 hPa 0,0 l/m 1,9 km/h (1 Bft) 1,00 h 0,00 h 3,3 km/h (1 Bft)
21.09.2012 14:00 20,2 C 17,2 C 1,6 UV-I 4,2 C 48 % 64 % 100 % 1014,5 hPa 0,0 l/m 1,8 km/h (1 Bft) 1,00 h 0,00 h 2,3 km/h (1 Bft)
21.09.2012 15:00 20,8 C 17,8 C 1,2 UV-I 3,1 C 46 % 58 % 87 % 1013,4 hPa 0,0 l/m 1,5 km/h (1 Bft) 0,80 h 0,00 h 2,2 km/h (1 Bft)
21.09.2012 16:00 21,0 C 17,7 C 0,6 UV-I 1,9 C 45 % 56 % 53 % 1012,5 hPa 0,0 l/m 1,5 km/h (1 Bft) 0,00 h 0,00 h 1,6 km/h (1 Bft)
21.09.2012 17:00 20,9 C 17,2 C 0,1 UV-I 0,5 C 45 % 58 % 13 % 1011,8 hPa 0,0 l/m 1,3 km/h (1 Bft) 0,00 h 0,00 h 2,0 km/h (1 Bft)
21.09.2012 18:00 20,6 C 16,2 C 0,0 UV-I 0,0 C 46 % 62 % 0 % 1011,6 hPa 0,0 l/m 1,3 km/h (1 Bft) 0,00 h 0,00 h 1,0 km/h (0 Bft)
21.09.2012 19:00 20,1 C 14,7 C 0,0 UV-I 0,0 C 47 % 68 % 0 % 1011,4 hPa 0,0 l/m 0,1 km/h (0 Bft) 0,00 h 0,00 h 0,0 km/h (0 Bft)
21.09.2012 20:00 19,7 C 13,2 C 0,0 UV-I 0,0 C 49 % 74 % 0 % 1011,3 hPa 0,0 l/m 0,0 km/h (0 Bft) 0,00 h 0,00 h 0,0 km/h (0 Bft)
21.09.2012 21:00 19,3 C 12,1 C 0,0 UV-I 0,0 C 51 % 79 % 0 % 1010,8 hPa 0,0 l/m 0,0 km/h (0 Bft) 0,00 h 0,00 h 0,0 km/h (0 Bft)
21.09.2012 22:00 18,9 C 11,3 C 0,0 UV-I 0,0 C 53 % 84 % 0 % 1010,6 hPa 0,0 l/m 0,0 km/h (0 Bft) 0,00 h 0,07 h 0,0 km/h (0 Bft)
21.09.2012 23:00 18,7 C 10,8 C 0,0 UV-I 0,0 C 54 % 86 % 0 % 1010,3 hPa 0,0 l/m 0,0 km/h (0 Bft) 0,00 h 0,00 h 0,0 km/h (0 Bft)
22.09.2012 00:00 18,5 C 10,1 C 0,0 UV-I 0,0 C 53 % 87 % 0 % 1010,3 hPa 0,0 l/m 0,0 km/h (0 Bft) 0,00 h 0,03 h 0,0 km/h (0 Bft)
22.09.2012 01:00 18,3 C 9,4 C 0,0 UV-I 0,0 C 53 % 89 % 0 % 1010,1 hPa 0,0 l/m 0,1 km/h (0 Bft) 0,00 h 0,00 h 0,3 km/h (0 Bft)
22.09.2012 02:00 18,2 C 9,3 C 0,0 UV-I 0,0 C 53 % 90 % 0 % 1010,6 hPa 0,0 l/m 0,0 km/h (0 Bft) 0,00 h 0,00 h 0,0 km/h (0 Bft)
22.09.2012 03:00 18,2 C 9,2 C 0,0 UV-I 0,0 C 53 % 89 % 0 % 1010,5 hPa 0,0 l/m 0,1 km/h (0 Bft) 0,00 h 0,03 h 0,0 km/h (0 Bft)
22.09.2012 04:00 18,0 C 9,1 C 0,0 UV-I 0,0 C 52 % 90 % 0 % 1010,7 hPa 0,0 l/m 0,7 km/h (0 Bft) 0,00 h 0,13 h 1,6 km/h (1 Bft)
22.09.2012 05:00 17,9 C 9,3 C 0,0 UV-I 0,0 C 53 % 91 % 0 % 1010,7 hPa 0,0 l/m 0,7 km/h (0 Bft) 0,00 h 0,47 h 0,7 km/h (0 Bft)
22.09.2012 06:00 17,9 C 9,5 C 0,0 UV-I 0,0 C 55 % 93 % 0 % 1011,2 hPa 0,4 l/m 1,0 km/h (0 Bft) 0,00 h 0,40 h 2,2 km/h (1 Bft)
22.09.2012 07:00 17,9 C 9,5 C 0,0 UV-I 0,0 C 56 % 94 % 0 % 1012,3 hPa 0,0 l/m 0,2 km/h (0 Bft) 0,00 h 0,13 h 0,5 km/h (0 Bft)
22.09.2012 08:00 18,0 C 9,7 C 0,0 UV-I 0,3 C 57 % 95 % 8 % 1013,5 hPa 0,0 l/m 0,6 km/h (0 Bft) 0,00 h 0,00 h 1,5 km/h (1 Bft)
22.09.2012 09:00 18,1 C 10,6 C 0,1 UV-I 0,6 C 58 % 96 % 16 % 1014,1 hPa 0,0 l/m 1,3 km/h (1 Bft) 0,00 h 0,30 h 2,6 km/h (1 Bft)
22.09.2012 10:00 18,5 C 11,8 C 0,7 UV-I 3,1 C 58 % 95 % 77 % 1015,0 hPa 0,0 l/m 4,0 km/h (1 Bft) 0,53 h 0,00 h 8,1 km/h (2 Bft)
22.09.2012 11:00 18,9 C 13,5 C 2,7 UV-I 6,6 C 56 % 89 % 100 % 1015,8 hPa 0,0 l/m 7,0 km/h (2 Bft) 1,00 h 0,00 h 11,0 km/h (2 Bft)
22.09.2012 12:00 19,3 C 14,9 C 1,8 UV-I 5,4 C 55 % 75 % 90 % 1016,0 hPa 0,0 l/m 7,1 km/h (2 Bft) 0,80 h 0,00 h 9,9 km/h (2 Bft)
22.09.2012 13:00 20,2 C 16,1 C 4,5 UV-I 6,6 C 54 % 65 % 98 % 1016,6 hPa 0,0 l/m 7,6 km/h (2 Bft) 0,93 h 0,00 h 12,3 km/h (3 Bft)
22.09.2012 14:00 21,6 C 16,9 C 3,6 UV-I 5,7 C 49 % 58 % 96 % 1018,8 hPa 0,0 l/m 9,1 km/h (2 Bft) 0,90 h 0,03 h 11,7 km/h (2 Bft)
22.09.2012 15:00 22,3 C 16,6 C 2,7 UV-I 3,6 C 44 % 57 % 86 % 1017,5 hPa 0,0 l/m 5,8 km/h (1 Bft) 0,60 h 0,00 h 8,1 km/h (2 Bft)
22.09.2012 16:00 22,8 C 16,2 C 2,0 UV-I 3,3 C 43 % 57 % 76 % 1016,8 hPa 0,0 l/m 7,2 km/h (2 Bft) 0,60 h 0,00 h 11,1 km/h (2 Bft)
22.09.2012 17:00 22,6 C 15,5 C 0,5 UV-I 1,5 C 42 % 60 % 41 % 1017,3 hPa 0,0 l/m 7,2 km/h (2 Bft) 0,23 h 0,00 h 8,2 km/h (2 Bft)
22.09.2012 18:00 21,7 C 15,8 C 0,1 UV-I 1,4 C 43 % 58 % 39 % 1018,0 hPa 0,0 l/m 4,4 km/h (1 Bft) 0,47 h 0,00 h 5,4 km/h (1 Bft)
22.09.2012 19:00 21,0 C 13,8 C 0,0 UV-I 0,0 C 44 % 63 % 0 % 1018,7 hPa 0,0 l/m 0,7 km/h (0 Bft) 0,00 h 0,00 h 0,2 km/h (0 Bft)
22.09.2012 20:00 20,1 C 10,8 C 0,0 UV-I 0,0 C 46 % 73 % 0 % 1019,3 hPa 0,0 l/m 0,0 km/h (0 Bft) 0,00 h 0,00 h 0,0 km/h (0 Bft)
22.09.2012 21:00 19,4 C 8,8 C 0,0 UV-I 0,0 C 47 % 80 % 0 % 1019,7 hPa 0,0 l/m 0,0 km/h (0 Bft) 0,00 h 0,00 h 0,0 km/h (0 Bft)
22.09.2012 22:00 18,9 C 7,8 C 0,0 UV-I 0,0 C 48 % 85 % 0 % 1019,8 hPa 0,0 l/m 0,0 km/h (0 Bft) 0,00 h 0,00 h 0,0 km/h (0 Bft)
22.09.2012 23:00 18,6 C 7,0 C 0,0 UV-I 0,0 C 48 % 88 % 0 % 1019,7 hPa 0,0 l/m 0,0 km/h (0 Bft) 0,00 h 0,00 h 0,0 km/h (0 Bft)
23.09.2012 00:00 18,4 C 6,3 C 0,0 UV-I 0,0 C 48 % 90 % 0 % 1019,8 hPa 0,0 l/m 0,0 km/h (0 Bft) 0,00 h 0,00 h 0,0 km/h (0 Bft)
23.09.2012 01:00 18,2 C 6,1 C 0,0 UV-I 0,0 C 49 % 92 % 0 % 1019,8 hPa 0,0 l/m 0,0 km/h (0 Bft) 0,00 h 0,00 h 0,0 km/h (0 Bft)
23.09.2012 02:00 18,0 C 6,4 C 0,0 UV-I 0,0 C 49 % 93 % 0 % 1019,5 hPa 0,0 l/m 0,0 km/h (0 Bft) 0,00 h 0,00 h 0,0 km/h (0 Bft)
23.09.2012 03:00 18,0 C 6,5 C 0,0 UV-I 0,0 C 49 % 93 % 0 % 1019,0 hPa 0,0 l/m 0,0 km/h (0 Bft) 0,00 h 0,00 h 0,0 km/h (0 Bft)
23.09.2012 04:00 17,9 C 6,6 C 0,0 UV-I 0,0 C 50 % 94 % 0 % 1018,7 hPa 0,0 l/m 0,0 km/h (0 Bft) 0,00 h 0,07 h 0,2 km/h (0 Bft)
23.09.2012 05:00 17,8 C 6,0 C 0,0 UV-I 0,0 C 50 % 94 % 0 % 1018,4 hPa 0,0 l/m 0,0 km/h (0 Bft) 0,00 h 0,00 h 0,0 km/h (0 Bft)
23.09.2012 06:00 17,7 C 5,5 C 0,0 UV-I 0,0 C 49 % 94 % 0 % 1018,3 hPa 0,0 l/m 0,0 km/h (0 Bft) 0,00 h 0,00 h 0,0 km/h (0 Bft)
23.09.2012 07:00 17,6 C 5,8 C 0,0 UV-I 0,0 C 50 % 95 % 0 % 1017,8 hPa 0,0 l/m 0,0 km/h (0 Bft) 0,00 h 0,00 h 0,0 km/h (0 Bft)
23.09.2012 08:00 17,6 C 6,6 C 0,0 UV-I 0,0 C 50 % 96 % 0 % 1017,7 hPa 0,0 l/m 0,1 km/h (0 Bft) 0,00 h 0,00 h 0,1 km/h (0 Bft)
23.09.2012 09:00 17,7 C 8,0 C 0,0 UV-I 0,9 C 51 % 96 % 25 % 1017,6 hPa 0,0 l/m 0,1 km/h (0 Bft) 0,00 h 0,00 h 0,2 km/h (0 Bft)
23.09.2012 10:00 18,1 C 10,3 C 0,4 UV-I 2,7 C 51 % 90 % 77 % 1017,0 hPa 0,0 l/m 2,6 km/h (1 Bft) 0,33 h 0,00 h 4,5 km/h (1 Bft)
23.09.2012 11:00 18,4 C 11,9 C 0,6 UV-I 2,5 C 51 % 83 % 71 % 1016,2 hPa 0,0 l/m 3,0 km/h (1 Bft) 0,27 h 0,00 h 4,1 km/h (1 Bft)
23.09.2012 12:00 18,8 C 13,3 C 0,6 UV-I 2,4 C 51 % 78 % 69 % 1015,0 hPa 0,0 l/m 2,6 km/h (1 Bft) 0,33 h 0,00 h 5,1 km/h (1 Bft)
23.09.2012 13:00 19,1 C 14,4 C 0,8 UV-I 2,7 C 51 % 74 % 78 % 1014,2 hPa 0,0 l/m 3,0 km/h (1 Bft) 0,47 h 0,00 h 4,8 km/h (1 Bft)
23.09.2012 14:00 19,8 C 15,4 C 1,3 UV-I 3,4 C 50 % 70 % 87 % 1013,3 hPa 0,0 l/m 4,7 km/h (1 Bft) 0,70 h 0,00 h 5,9 km/h (2 Bft)
23.09.2012 15:00 20,1 C 15,3 C 0,4 UV-I 1,4 C 48 % 69 % 39 % 1012,1 hPa 0,0 l/m 4,8 km/h (1 Bft) 0,00 h 0,00 h 8,4 km/h (2 Bft)
23.09.2012 16:00 19,9 C 15,0 C 0,2 UV-I 0,9 C 49 % 70 % 25 % 1010,7 hPa 0,0 l/m 4,7 km/h (1 Bft) 0,00 h 0,00 h 6,4 km/h (2 Bft)
23.09.2012 17:00 19,7 C 14,5 C 0,0 UV-I 0,2 C 50 % 73 % 7 % 1009,2 hPa 0,0 l/m 5,5 km/h (1 Bft) 0,00 h 0,00 h 8,1 km/h (2 Bft)
23.09.2012 18:00 19,5 C 14,3 C 0,0 UV-I 0,0 C 50 % 74 % 1 % 1007,5 hPa 0,0 l/m 3,8 km/h (1 Bft) 0,00 h 0,00 h 5,4 km/h (1 Bft)
23.09.2012 19:00 19,4 C 14,4 C 0,0 UV-I 0,0 C 51 % 71 % 0 % 1006,1 hPa 0,0 l/m 5,5 km/h (1 Bft) 0,00 h 0,00 h 7,7 km/h (2 Bft)
23.09.2012 20:00 19,4 C 14,7 C 0,0 UV-I 0,0 C 51 % 69 % 0 % 1004,8 hPa 0,0 l/m 6,3 km/h (2 Bft) 0,00 h 0,00 h 9,1 km/h (2 Bft)
23.09.2012 21:00 19,3 C 14,0 C 0,0 UV-I 0,0 C 51 % 74 % 0 % 1005,2 hPa 0,0 l/m 4,4 km/h (1 Bft) 0,00 h 0,20 h 6,4 km/h (2 Bft)
23.09.2012 22:00 19,3 C 12,6 C 0,0 UV-I 0,0 C 51 % 80 % 0 % 1004,0 hPa 0,0 l/m 4,1 km/h (1 Bft) 0,00 h 0,00 h 6,0 km/h (2 Bft)
23.09.2012 23:00 19,2 C 12,0 C 0,0 UV-I 0,0 C 52 % 83 % 0 % 1002,8 hPa 0,0 l/m 4,7 km/h (1 Bft) 0,00 h 0,00 h 6,9 km/h (2 Bft)
Min-Datum _ 21.09.12 23.09.12 17.09.12 17.09.12 19.09.12 20.09.12 17.09.12 23.09.12 - 17.09.12 - - 17.09.12
_ Min-Zeit 07:56 06:16 00:00 00:00 16:54 16:06 00:00 23:48 - 00:00 - - 00:00
Minimum _ 17,0 C 5,4 C 0,0 UV-I 0,0 C 39 % 53 % 0 % 1002,4 hPa - 0,0 km/h (0 Bft) - - 0,0 km/h (0 Bft)
Max-Datum _ 19.09.12 18.09.12 22.09.12 19.09.12 18.09.12 18.09.12 18.09.12 20.09.12 19.09.12 22.09.12 17.09.12 18.09.12 19.09.12
_ Max-Zeit 16:10 15:18 13:30 09:52 05:48 08:46 09:16 11:28 12:30 16:56 17:50 04:50 16:16
Maximum _ 23,0 C 18,7 C 5,1 UV-I 8,5 C 63 % 97 % 100 % 1022,7 hPa 0,7 l/m 13,7 km/h
W (3 Bft)
0,03 h 0,03 h 38,9 km/h
W-NW (6 Bft)
Durchschnitt _ 19,6 C 12,3 C 0,4 UV-I 1,2 C 52 % 82 % 27 % 1015,4 hPa #1,1 l/m 2,1 km/h (1 Bft) #28:02 h #3:04 h 3,3 km/h (1 Bft)
© 2012 W. Hausmann